Time;durP1;ratioP1;P1;durP2;ratioP2;P2;SDS_P1;SDS_P2;PMS_P1;PMS_P2;Temp;Humidity;BMP_temperature;BMP_pressure;BME280_temperature;BME280_humidity;BME280_pressure;Samples;Min_cycle;Max_cycle;Signal;HPM_P1;HPM_P2
2022/07/30 00:01:51;;;;;;;5.15;2.33;;;;;;;;;;4991861;28;20402;-64
2022/07/30 00:04:21;;;;;;;7.72;2.67;;;;;;;;;;4965350;28;20089;-64
2022/07/30 00:06:51;;;;;;;5.78;2.55;;;;;;;;;;4936815;28;20051;-66
2022/07/30 00:09:21;;;;;;;10.20;2.47;;;;;;;;;;4952791;28;20059;-64
2022/07/30 00:11:52;;;;;;;6.68;2.42;;;;;;;;;;4952960;28;20094;-64
2022/07/30 00:14:23;;;;;;;7.45;2.67;;;;;;;;;;4953037;28;20047;-64
2022/07/30 00:16:53;;;;;;;6.28;2.40;;;;;;;;;;4952723;28;20067;-64
2022/07/30 00:19:24;;;;;;;7.00;2.67;;;;;;;;;;4952323;28;20070;-64
2022/07/30 00:21:54;;;;;;;4.63;2.20;;;;;;;;;;4952498;28;20056;-64
2022/07/30 00:24:25;;;;;;;4.88;2.22;;;;;;;;;;4961563;28;20077;-64
2022/07/30 00:26:55;;;;;;;6.22;2.63;;;;;;;;;;4933299;29;20056;-65
2022/07/30 00:29:26;;;;;;;7.28;2.10;;;;;;;;;;4933087;29;20078;-65
2022/07/30 00:31:56;;;;;;;7.45;2.70;;;;;;;;;;4904153;29;20118;-65
2022/07/30 00:34:27;;;;;;;7.25;2.47;;;;;;;;;;4882732;29;20531;-66
2022/07/30 00:36:57;;;;;;;6.32;2.80;;;;;;;;;;4914177;29;20060;-65
2022/07/30 00:39:29;;;;;;;8.73;2.50;;;;;;;;;;4910019;29;20075;-65
2022/07/30 00:42:03;;;;;;;7.72;3.10;;;;;;;;;;4913842;29;20737;-65
2022/07/30 00:44:34;;;;;;;9.23;3.50;;;;;;;;;;4952650;28;20119;-64
2022/07/30 00:47:08;;;;;;;7.05;3.15;;;;;;;;;;4971529;28;20058;-65
2022/07/30 00:49:38;;;;;;;5.97;2.65;;;;;;;;;;4951375;28;20051;-68
2022/07/30 00:52:13;;;;;;;5.63;2.40;;;;;;;;;;4952100;29;20722;-65
2022/07/30 00:54:43;;;;;;;7.20;2.97;;;;;;;;;;4932159;29;20052;-65
2022/07/30 00:57:14;;;;;;;8.18;3.05;;;;;;;;;;4928854;29;20086;-65
2022/07/30 00:59:44;;;;;;;8.00;3.10;;;;;;;;;;4929165;29;20425;-65
2022/07/30 01:02:14;;;;;;;6.20;2.72;;;;;;;;;;4913183;29;20116;-64
2022/07/30 01:04:45;;;;;;;9.68;3.33;;;;;;;;;;4935295;29;20066;-66
2022/07/30 01:07:15;;;;;;;7.00;3.42;;;;;;;;;;4951170;29;20047;-67
2022/07/30 01:09:45;;;;;;;8.98;3.50;;;;;;;;;;4932140;29;20055;-66
2022/07/30 01:12:20;;;;;;;8.57;3.63;;;;;;;;;;4932680;29;20056;-65
2022/07/30 01:14:52;;;;;;;8.23;3.20;;;;;;;;;;4931847;29;20055;-65
2022/07/30 01:17:22;;;;;;;8.60;3.70;;;;;;;;;;4916851;29;20582;-65
2022/07/30 01:19:59;;;;;;;9.13;3.80;;;;;;;;;;4891891;29;20449;-65
2022/07/30 01:23:27;;;;;;;12.30;3.60;;;;;;;;;;4864263;29;20053;-65
2022/07/30 01:26:24;;;;;;;6.97;3.15;;;;;;;;;;4820316;29;20063;-65
2022/07/30 01:29:09;;;;;;;7.43;2.88;;;;;;;;;;4820298;29;20058;-66
2022/07/30 01:31:58;;;;;;;7.15;2.85;;;;;;;;;;4819523;29;20058;-65
2022/07/30 01:34:44;;;;;;;6.18;3.13;;;;;;;;;;4820005;29;20061;-65
2022/07/30 01:37:28;;;;;;;9.02;2.83;;;;;;;;;;4801398;29;20063;-65
2022/07/30 01:40:13;;;;;;;7.93;2.90;;;;;;;;;;4819839;29;20057;-65
2022/07/30 01:42:46;;;;;;;;;;;;;;;;;;4820501;29;20054;-66
2022/07/30 01:45:31;;;;;;;7.75;3.38;;;;;;;;;;4819270;29;19929;-65
2022/07/30 01:48:15;;;;;;;;;;;;;;;;;;4798542;29;20524;-64
2022/07/30 01:51:02;;;;;;;8.68;3.63;;;;;;;;;;4814660;29;19925;-66
2022/07/30 01:53:50;;;;;;;10.10;3.78;;;;;;;;;;4820134;29;20069;-65
2022/07/30 01:56:36;;;;;;;8.00;3.60;;;;;;;;;;4797718;29;20062;-65
2022/07/30 01:59:09;;;;;;;9.07;3.58;;;;;;;;;;4801476;29;20059;-65
2022/07/30 02:01:41;;;;;;;9.45;3.40;;;;;;;;;;4795543;29;20060;-66
2022/07/30 02:04:11;;;;;;;9.13;3.45;;;;;;;;;;4765845;30;20059;-65
2022/07/30 02:06:48;;;;;;;9.52;4.38;;;;;;;;;;4843433;29;20050;-65
2022/07/30 02:09:26;;;;;;;7.93;3.60;;;;;;;;;;4866912;29;20418;-64
2022/07/30 02:14:54;;;;;;;8.93;3.35;;;;;;;;;;4856853;29;20061;-65
2022/07/30 02:17:30;;;;;;;9.50;3.78;;;;;;;;;;4822387;29;20055;-65
2022/07/30 02:20:13;;;;;;;15.02;3.88;;;;;;;;;;4801022;29;20062;-65
2022/07/30 02:22:46;;;;;;;8.45;3.60;;;;;;;;;;4834170;29;20132;-66
2022/07/30 02:25:21;;;;;;;7.88;2.78;;;;;;;;;;4834027;29;20081;-65
2022/07/30 02:27:59;;;;;;;11.82;3.75;;;;;;;;;;4836237;29;20049;-65
2022/07/30 02:30:35;;;;;;;12.60;4.25;;;;;;;;;;4864978;29;20413;-64
2022/07/30 02:33:09;;;;;;;10.38;3.53;;;;;;;;;;4912829;29;20059;-64
2022/07/30 02:35:40;;;;;;;9.52;3.67;;;;;;;;;;4917510;29;20100;-65
2022/07/30 02:38:12;;;;;;;8.70;3.75;;;;;;;;;;4896935;29;20060;-65
2022/07/30 02:40:44;;;;;;;10.02;3.50;;;;;;;;;;4911810;29;20452;-65
2022/07/30 02:43:16;;;;;;;6.78;2.90;;;;;;;;;;4897089;29;20508;-65
2022/07/30 02:45:47;;;;;;;7.45;3.45;;;;;;;;;;4892822;29;20068;-65
2022/07/30 02:48:22;;;;;;;9.82;3.97;;;;;;;;;;4892884;29;20059;-67
2022/07/30 02:51:06;;;;;;;9.82;3.85;;;;;;;;;;4907024;29;20061;-64
2022/07/30 02:53:39;;;;;;;12.90;4.68;;;;;;;;;;4874451;29;20053;-64
2022/07/30 02:56:10;;;;;;;10.07;3.88;;;;;;;;;;4892847;29;20098;-67
2022/07/30 02:58:44;;;;;;;9.55;3.55;;;;;;;;;;4893210;29;20517;-65
2022/07/30 03:01:17;;;;;;;11.43;4.65;;;;;;;;;;4874160;29;20052;-66
2022/07/30 03:03:50;;;;;;;7.82;3.90;;;;;;;;;;4909093;29;20056;-67
2022/07/30 03:06:20;;;;;;;;;;;;;;;;;;4880728;29;20056;-65
2022/07/30 03:08:51;;;;;;;7.75;2.88;;;;;;;;;;4930587;29;19923;-66
2022/07/30 03:11:23;;;;;;;10.40;3.70;;;;;;;;;;4946500;28;20532;-65
2022/07/30 03:13:54;;;;;;;8.75;3.63;;;;;;;;;;4952137;29;20052;-65
2022/07/30 03:16:25;;;;;;;10.75;3.22;;;;;;;;;;4985873;28;20051;-65
2022/07/30 03:19:01;;;;;;;8.20;3.45;;;;;;;;;;4977587;28;20054;-65
2022/07/30 03:21:36;;;;;;;7.20;3.47;;;;;;;;;;4972519;28;20038;-64
2022/07/30 03:24:11;;;;;;;8.88;3.40;;;;;;;;;;4906580;29;20056;-65
2022/07/30 03:26:43;;;;;;;8.38;3.33;;;;;;;;;;4878499;29;20064;-66
2022/07/30 03:29:15;;;;;;;8.27;3.95;;;;;;;;;;4883188;29;20694;-64
2022/07/30 03:31:51;;;;;;;8.68;3.78;;;;;;;;;;4909606;29;20055;-64
2022/07/30 03:34:23;;;;;;;8.13;3.38;;;;;;;;;;4933761;29;20056;-65
2022/07/30 03:36:54;;;;;;;8.38;3.70;;;;;;;;;;4934265;29;20048;-65
2022/07/30 03:39:26;;;;;;;10.18;3.90;;;;;;;;;;4949350;29;20056;-66
2022/07/30 03:41:57;;;;;;;7.43;3.33;;;;;;;;;;4933809;29;20059;-65
2022/07/30 03:44:29;;;;;;;7.88;3.60;;;;;;;;;;4920949;29;20463;-65
2022/07/30 03:47:01;;;;;;;8.60;3.70;;;;;;;;;;4907411;29;20056;-65
2022/07/30 03:49:38;;;;;;;10.00;4.22;;;;;;;;;;4868619;29;20410;-66
2022/07/30 03:52:12;;;;;;;7.13;3.28;;;;;;;;;;4923215;29;20169;-67
2022/07/30 03:54:43;;;;;;;8.52;3.13;;;;;;;;;;4914526;29;20060;-65
2022/07/30 03:57:15;;;;;;;8.85;3.78;;;;;;;;;;4914696;29;20055;-65
2022/07/30 03:59:50;;;;;;;8.20;3.67;;;;;;;;;;4914072;29;20056;-65
2022/07/30 04:02:22;;;;;;;8.45;3.72;;;;;;;;;;4928695;29;20408;-65
2022/07/30 04:05:16;;;;;;;9.05;4.50;;;;;;;;;;4920741;29;20093;-66
2022/07/30 04:07:49;;;;;;;8.15;3.85;;;;;;;;;;4914250;29;20052;-65
2022/07/30 04:10:20;;;;;;;6.88;3.38;;;;;;;;;;4906830;29;20037;-64
2022/07/30 04:13:11;;;;;;;11.57;3.95;;;;;;;;;;4860183;29;20073;-64
2022/07/30 04:16:07;;;;;;;9.13;3.50;;;;;;;;;;4843020;29;20066;-64
2022/07/30 04:19:00;;;;;;;7.45;3.42;;;;;;;;;;4899666;29;20448;-64
2022/07/30 04:21:32;;;;;;;6.47;3.15;;;;;;;;;;4894900;29;20056;-65
2022/07/30 04:24:05;;;;;;;10.30;3.95;;;;;;;;;;4889320;29;20432;-66
2022/07/30 04:26:36;;;;;;;9.00;4.20;;;;;;;;;;4895866;29;20449;-65
2022/07/30 04:29:10;;;;;;;9.18;3.58;;;;;;;;;;4913878;29;20071;-66
2022/07/30 04:31:46;;;;;;;7.72;3.35;;;;;;;;;;4909379;29;20064;-65
2022/07/30 04:34:54;;;;;;;8.48;3.53;;;;;;;;;;4884139;29;20053;-65
2022/07/30 04:37:57;;;;;;;7.47;3.67;;;;;;;;;;4863607;29;20079;-65
2022/07/30 04:40:29;;;;;;;7.65;3.88;;;;;;;;;;4876023;29;20053;-66
2022/07/30 04:42:59;;;;;;;7.70;3.53;;;;;;;;;;4872984;29;20069;-65
2022/07/30 04:45:29;;;;;;;10.25;3.80;;;;;;;;;;4793737;29;20141;-65
2022/07/30 04:48:02;;;;;;;10.05;3.60;;;;;;;;;;4894378;29;20072;-65
2022/07/30 04:50:35;;;;;;;9.15;4.15;;;;;;;;;;4895526;29;20057;-64
2022/07/30 04:53:09;;;;;;;8.40;3.78;;;;;;;;;;4894878;29;20056;-66
2022/07/30 04:55:48;;;;;;;9.35;3.53;;;;;;;;;;4889967;29;20068;-64
2022/07/30 04:58:22;;;;;;;7.57;3.88;;;;;;;;;;4900184;29;20063;-65
2022/07/30 05:00:54;;;;;;;8.70;4.57;;;;;;;;;;4916388;29;20051;-66
2022/07/30 05:03:30;;;;;;;8.95;4.10;;;;;;;;;;4932512;29;20168;-66
2022/07/30 05:06:02;;;;;;;10.75;4.57;;;;;;;;;;4932266;29;20409;-65
2022/07/30 05:08:37;;;;;;;9.27;4.75;;;;;;;;;;4932686;29;20070;-68
2022/07/30 05:11:13;;;;;;;9.68;4.47;;;;;;;;;;4913060;29;20071;-65
2022/07/30 05:13:44;;;;;;;9.00;4.35;;;;;;;;;;4894514;29;20061;-65
2022/07/30 05:16:19;;;;;;;8.27;4.38;;;;;;;;;;4857127;29;20067;-65
2022/07/30 05:18:51;;;;;;;9.35;4.30;;;;;;;;;;4856371;29;20045;-68
2022/07/30 05:21:21;;;;;;;8.20;3.95;;;;;;;;;;4827874;29;20054;-66
2022/07/30 05:23:56;;;;;;;10.30;4.03;;;;;;;;;;4869596;29;20063;-65
2022/07/30 05:26:35;;;;;;;8.02;4.55;;;;;;;;;;4877349;29;20057;-65
2022/07/30 05:29:08;;;;;;;12.95;4.28;;;;;;;;;;4874850;29;20056;-65
2022/07/30 05:32:01;;;;;;;10.57;4.25;;;;;;;;;;4875198;29;20067;-65
2022/07/30 05:34:36;;;;;;;8.32;3.90;;;;;;;;;;4871033;29;20061;-65
2022/07/30 05:37:07;;;;;;;8.07;4.00;;;;;;;;;;4838254;29;20070;-65
2022/07/30 05:39:40;;;;;;;9.43;4.22;;;;;;;;;;4838073;29;20058;-67
2022/07/30 05:42:51;;;;;;;9.85;4.03;;;;;;;;;;4778697;30;20059;-65
2022/07/30 05:45:21;;;;;;;9.73;4.10;;;;;;;;;;4783722;30;20539;-64
2022/07/30 05:47:51;;;;;;;9.73;4.00;;;;;;;;;;4786348;29;21236;-64
2022/07/30 05:50:22;;;;;;;9.88;4.40;;;;;;;;;;4819731;29;20496;-65
2022/07/30 05:52:54;;;;;;;8.45;4.10;;;;;;;;;;4819523;29;20089;-66
2022/07/30 05:55:47;;;;;;;8.95;3.50;;;;;;;;;;4758878;30;20049;-66
2022/07/30 05:58:41;;;;;;;9.77;4.47;;;;;;;;;;4726640;30;20507;-65
2022/07/30 06:01:16;;;;;;;11.77;4.22;;;;;;;;;;4724079;30;20057;-65
2022/07/30 06:03:46;;;;;;;11.00;4.07;;;;;;;;;;4688459;30;20511;-67
2022/07/30 06:06:34;;;;;;;6.95;3.70;;;;;;;;;;4720543;30;20052;-66
2022/07/30 06:09:05;;;;;;;10.57;4.43;;;;;;;;;;4747712;30;20056;-67
2022/07/30 06:11:36;;;;;;;11.63;4.40;;;;;;;;;;4747957;30;20449;-66
2022/07/30 06:14:06;;;;;;;8.45;4.05;;;;;;;;;;4768726;30;20105;-65
2022/07/30 06:16:37;;;;;;;6.70;3.45;;;;;;;;;;4783548;30;20071;-64
2022/07/30 06:19:07;;;;;;;8.52;3.95;;;;;;;;;;4849582;29;20050;-64
2022/07/30 06:21:47;;;;;;;8.80;4.45;;;;;;;;;;4837613;29;20461;-67
2022/07/30 06:24:38;;;;;;;8.82;3.45;;;;;;;;;;4821196;29;20526;-65
2022/07/30 06:27:16;;;;;;;9.65;4.10;;;;;;;;;;4840388;29;20052;-65
2022/07/30 06:29:48;;;;;;;7.15;3.42;;;;;;;;;;4834061;29;20050;-65
2022/07/30 06:32:18;;;;;;;7.88;3.58;;;;;;;;;;4815846;29;20051;-67
2022/07/30 06:34:48;;;;;;;8.13;3.67;;;;;;;;;;4801369;29;20116;-65
2022/07/30 06:37:30;;;;;;;8.60;3.67;;;;;;;;;;4801402;29;20421;-66
2022/07/30 06:40:23;;;;;;;8.95;3.63;;;;;;;;;;4820485;29;20443;-65
2022/07/30 06:43:10;;;;;;;7.22;3.42;;;;;;;;;;4855612;29;20053;-66
2022/07/30 06:45:51;;;;;;;6.53;3.05;;;;;;;;;;4850994;29;20050;-65
2022/07/30 06:48:24;;;;;;;7.05;3.53;;;;;;;;;;4841019;29;20084;-66
2022/07/30 06:50:55;;;;;;;6.50;3.42;;;;;;;;;;4891844;29;20045;-66
2022/07/30 06:53:26;;;;;;;8.90;3.42;;;;;;;;;;4877783;29;20052;-66
2022/07/30 06:56:14;;;;;;;6.13;3.10;;;;;;;;;;4886421;29;20054;-67
2022/07/30 06:58:49;;;;;;;6.53;3.47;;;;;;;;;;4884450;29;20046;-65
2022/07/30 07:01:38;;;;;;;9.30;3.88;;;;;;;;;;4845198;29;20053;-66
2022/07/30 07:04:09;;;;;;;9.65;3.17;;;;;;;;;;4862440;29;20049;-66
2022/07/30 07:06:41;;;;;;;9.57;3.38;;;;;;;;;;4881738;29;20056;-66
2022/07/30 07:09:15;;;;;;;5.10;2.78;;;;;;;;;;4892756;29;20525;-66
2022/07/30 07:12:01;;;;;;;6.65;3.55;;;;;;;;;;4877513;29;20061;-65
2022/07/30 07:14:32;;;;;;;9.32;3.08;;;;;;;;;;4885960;29;20097;-65
2022/07/30 07:17:03;;;;;;;6.53;2.97;;;;;;;;;;4843564;29;20061;-66
2022/07/30 07:20:00;;;;;;;6.30;2.88;;;;;;;;;;4908535;29;20055;-65
2022/07/30 07:22:38;;;;;;;8.30;3.42;;;;;;;;;;4891809;29;20053;-65
2022/07/30 07:25:10;;;;;;;6.72;2.80;;;;;;;;;;4846734;29;20106;-66
2022/07/30 07:27:41;;;;;;;7.00;2.63;;;;;;;;;;4835772;29;20065;-65
2022/07/30 07:30:31;;;;;;;5.43;2.70;;;;;;;;;;4835618;29;20058;-65
2022/07/30 07:33:03;;;;;;;7.97;3.22;;;;;;;;;;4840464;29;20129;-66
2022/07/30 07:35:34;;;;;;;6.13;3.13;;;;;;;;;;4814350;29;20530;-65
2022/07/30 07:38:28;;;;;;;6.78;3.00;;;;;;;;;;4768024;30;20059;-66
2022/07/30 07:40:59;;;;;;;7.15;2.63;;;;;;;;;;4809400;29;20103;-66
2022/07/30 07:43:30;;;;;;;8.77;2.97;;;;;;;;;;4866352;29;20057;-65
2022/07/30 07:46:03;;;;;;;7.53;3.00;;;;;;;;;;4860875;29;20079;-65
2022/07/30 07:48:34;;;;;;;8.85;3.58;;;;;;;;;;4877029;29;20418;-66
2022/07/30 07:51:25;;;;;;;7.22;3.10;;;;;;;;;;4895796;29;20061;-65
2022/07/30 07:54:17;;;;;;;8.68;3.55;;;;;;;;;;4895738;29;20413;-65
2022/07/30 07:56:56;;;;;;;8.27;3.72;;;;;;;;;;4889558;29;20053;-65
2022/07/30 07:59:37;;;;;;;7.50;3.20;;;;;;;;;;4902660;29;20547;-66
2022/07/30 08:02:14;;;;;;;8.13;3.30;;;;;;;;;;4933320;29;20506;-65
2022/07/30 08:04:57;;;;;;;6.97;3.13;;;;;;;;;;4902303;29;20072;-65
2022/07/30 08:07:49;;;;;;;8.68;3.55;;;;;;;;;;4902000;29;20557;-66
2022/07/30 08:10:37;;;;;;;7.60;3.83;;;;;;;;;;4869143;29;20053;-66
2022/07/30 08:13:14;;;;;;;8.70;3.42;;;;;;;;;;4858535;29;20065;-66
2022/07/30 08:16:23;;;;;;;7.07;3.55;;;;;;;;;;4858949;29;20053;-66
2022/07/30 08:19:12;;;;;;;8.98;3.83;;;;;;;;;;4832191;29;20508;-67
2022/07/30 08:21:48;;;;;;;7.47;3.17;;;;;;;;;;4849446;29;20061;-66
2022/07/30 08:24:18;;;;;;;7.13;3.83;;;;;;;;;;4888616;29;20053;-66
2022/07/30 08:26:48;;;;;;;7.53;3.13;;;;;;;;;;4857759;29;20058;-66
2022/07/30 08:29:19;;;;;;;6.88;3.20;;;;;;;;;;4862221;29;20169;-66
2022/07/30 08:31:49;;;;;;;6.57;3.15;;;;;;;;;;4857753;29;20165;-66
2022/07/30 08:34:24;;;;;;;6.75;3.03;;;;;;;;;;4868258;29;20522;-66
2022/07/30 08:36:55;;;;;;;6.47;3.30;;;;;;;;;;4885228;29;20056;-66
2022/07/30 08:39:26;;;;;;;7.45;3.30;;;;;;;;;;4887495;29;20052;-66
2022/07/30 08:41:58;;;;;;;6.88;2.92;;;;;;;;;;4876083;29;20076;-67
2022/07/30 08:44:29;;;;;;;9.93;3.03;;;;;;;;;;4876471;29;20060;-66
2022/07/30 08:47:02;;;;;;;8.55;3.15;;;;;;;;;;4876084;29;20425;-66
2022/07/30 08:50:09;;;;;;;5.78;2.90;;;;;;;;;;4876388;29;20524;-66
2022/07/30 08:53:15;;;;;;;6.90;2.85;;;;;;;;;;4894744;29;20056;-66
2022/07/30 08:55:46;;;;;;;6.45;3.25;;;;;;;;;;4863510;29;20072;-66
2022/07/30 08:58:29;;;;;;;7.45;2.95;;;;;;;;;;4913187;29;20048;-66
2022/07/30 09:01:00;;;;;;;7.03;2.70;;;;;;;;;;4911962;29;20184;-66
2022/07/30 09:03:31;;;;;;;5.90;2.60;;;;;;;;;;4880550;29;20059;-66
2022/07/30 09:06:04;;;;;;;7.65;2.97;;;;;;;;;;4909511;29;20074;-66
2022/07/30 09:08:34;;;;;;;7.47;3.25;;;;;;;;;;4911994;29;20052;-65
2022/07/30 09:11:06;;;;;;;7.15;3.03;;;;;;;;;;4913202;29;20048;-65
2022/07/30 09:13:46;;;;;;;8.30;3.08;;;;;;;;;;4932010;29;20047;-66
2022/07/30 09:16:25;;;;;;;6.25;3.03;;;;;;;;;;4938617;28;20055;-66
2022/07/30 09:19:11;;;;;;;7.35;2.72;;;;;;;;;;4949047;28;20051;-67
2022/07/30 09:21:53;;;;;;;5.68;2.67;;;;;;;;;;4989911;28;20073;-66
2022/07/30 09:24:43;;;;;;;5.32;2.67;;;;;;;;;;4926035;29;20055;-65
2022/07/30 09:27:51;;;;;;;5.93;2.90;;;;;;;;;;4896674;29;20057;-66
2022/07/30 09:30:50;;;;;;;5.28;2.22;;;;;;;;;;4894105;29;20057;-66
2022/07/30 09:33:45;;;;;;;5.18;2.45;;;;;;;;;;4881748;29;20068;-66
2022/07/30 09:36:33;;;;;;;9.05;3.10;;;;;;;;;;4894541;29;20044;-65
2022/07/30 09:39:41;;;;;;;9.18;3.72;;;;;;;;;;4894004;29;20063;-64
2022/07/30 09:43:10;;;;;;;8.27;3.63;;;;;;;;;;4868891;29;20052;-66
2022/07/30 09:45:59;;;;;;;7.68;3.53;;;;;;;;;;4886952;29;20060;-65
2022/07/30 09:48:30;;;;;;;6.10;3.03;;;;;;;;;;4856716;29;20069;-66
2022/07/30 09:51:01;;;;;;;6.30;3.20;;;;;;;;;;4872039;29;20088;-66
2022/07/30 09:53:33;;;;;;;6.07;3.20;;;;;;;;;;4871355;29;20526;-67
2022/07/30 09:56:35;;;;;;;6.70;3.10;;;;;;;;;;4880167;29;20056;-67
2022/07/30 09:59:04;;;;;;;9.95;3.25;;;;;;;;;;4890627;29;20048;-67
2022/07/30 10:01:51;;;;;;;8.13;3.55;;;;;;;;;;4887419;29;20053;-67
2022/07/30 10:04:47;;;;;;;7.65;3.65;;;;;;;;;;4875412;29;20061;-67
2022/07/30 10:07:20;;;;;;;8.55;4.05;;;;;;;;;;4870940;29;20064;-67
2022/07/30 10:09:59;;;;;;;7.78;3.85;;;;;;;;;;4841420;29;20473;-67
2022/07/30 10:12:37;;;;;;;11.02;4.45;;;;;;;;;;4856415;29;20064;-68
2022/07/30 10:15:10;;;;;;;9.32;4.15;;;;;;;;;;4856337;29;20065;-67
2022/07/30 10:17:42;;;;;;;12.45;4.30;;;;;;;;;;4906293;29;20064;-68
2022/07/30 10:20:34;;;;;;;15.05;5.03;;;;;;;;;;4899211;29;20068;-67
2022/07/30 10:23:26;;;;;;;14.80;5.38;;;;;;;;;;4889415;29;20061;-69
2022/07/30 10:26:18;;;;;;;21.00;5.60;;;;;;;;;;4867123;29;20437;-66
2022/07/30 10:29:24;;;;;;;16.80;5.55;;;;;;;;;;4893578;29;20060;-67
2022/07/30 10:32:02;;;;;;;17.08;5.93;;;;;;;;;;4861746;29;20062;-67
2022/07/30 10:34:34;;;;;;;15.80;6.05;;;;;;;;;;4843365;29;20106;-66
2022/07/30 10:37:14;;;;;;;22.15;5.72;;;;;;;;;;4900597;29;20052;-67
2022/07/30 10:39:56;;;;;;;13.98;4.80;;;;;;;;;;4949362;28;20567;-67
2022/07/30 10:42:53;;;;;;;21.00;5.40;;;;;;;;;;4969752;28;20055;-68
2022/07/30 10:45:44;;;;;;;16.25;5.82;;;;;;;;;;4988859;28;20054;-66
2022/07/30 10:48:19;;;;;;;17.35;4.85;;;;;;;;;;4989311;28;20057;-66
2022/07/30 10:50:52;;;;;;;21.27;5.32;;;;;;;;;;4969155;28;20558;-66
2022/07/30 10:53:52;;;;;;;12.43;4.65;;;;;;;;;;4953399;28;20090;-67
2022/07/30 10:56:24;;;;;;;12.77;4.07;;;;;;;;;;4949882;29;20047;-66
2022/07/30 10:59:08;;;;;;;11.63;4.20;;;;;;;;;;4949819;29;20228;-65
2022/07/30 11:01:48;;;;;;;10.25;3.83;;;;;;;;;;4930990;29;20056;-66
2022/07/30 11:04:26;;;;;;;18.67;5.22;;;;;;;;;;4868684;29;20060;-66
2022/07/30 11:07:28;;;;;;;14.70;4.25;;;;;;;;;;4878090;29;20075;-66
2022/07/30 11:10:02;;;;;;;10.55;3.60;;;;;;;;;;4911780;29;20059;-66
2022/07/30 11:12:44;;;;;;;10.27;3.75;;;;;;;;;;4895944;29;20147;-65
2022/07/30 11:15:21;;;;;;;12.10;3.70;;;;;;;;;;4892567;29;20069;-66
2022/07/30 11:18:01;;;;;;;14.20;3.70;;;;;;;;;;4877111;29;20061;-66
2022/07/30 11:20:40;;;;;;;8.63;3.65;;;;;;;;;;4892913;29;20062;-66
2022/07/30 11:23:19;;;;;;;15.88;4.10;;;;;;;;;;4906671;29;20083;-66
2022/07/30 11:25:49;;;;;;;9.32;4.35;;;;;;;;;;4896508;29;20064;-66
2022/07/30 11:28:43;;;;;;;10.50;4.25;;;;;;;;;;4911838;29;20429;-65
2022/07/30 11:31:47;;;;;;;18.35;5.13;;;;;;;;;;4896222;29;20055;-66
2022/07/30 11:34:28;;;;;;;14.05;6.22;;;;;;;;;;4892998;29;20089;-66
2022/07/30 11:37:02;;;;;;;15.85;5.55;;;;;;;;;;4903089;29;20201;-66
2022/07/30 11:40:10;;;;;;;12.38;4.82;;;;;;;;;;4909966;29;20059;-65
2022/07/30 11:42:42;;;;;;;14.60;4.60;;;;;;;;;;4915426;29;20048;-65
2022/07/30 11:45:15;;;;;;;16.80;6.40;;;;;;;;;;4899390;29;20056;-66
2022/07/30 11:47:48;;;;;;;22.73;9.48;;;;;;;;;;4935991;29;20066;-66
2022/07/30 11:50:21;;;;;;;18.67;5.53;;;;;;;;;;4937138;29;20059;-68
2022/07/30 11:53:15;;;;;;;11.85;4.75;;;;;;;;;;4961001;28;20058;-65
2022/07/30 11:55:54;;;;;;;16.52;6.07;;;;;;;;;;4933495;29;20048;-65
2022/07/30 11:58:26;;;;;;;;;;;;;;;;;;4934129;29;20539;-65
2022/07/30 12:01:05;;;;;;;15.35;5.68;;;;;;;;;;4902228;29;19923;-65
2022/07/30 12:03:42;;;;;;;19.42;6.00;;;;;;;;;;4933671;29;20535;-64
2022/07/30 12:06:18;;;;;;;17.35;6.53;;;;;;;;;;4918202;29;20078;-66
2022/07/30 12:08:52;;;;;;;25.67;7.22;;;;;;;;;;4933813;29;20064;-66
2022/07/30 12:11:34;;;;;;;22.58;7.90;;;;;;;;;;4947246;28;20136;-65
2022/07/30 12:14:05;;;;;;;26.67;8.30;;;;;;;;;;4997935;28;20164;-65
2022/07/30 12:16:35;;;;;;;28.77;8.77;;;;;;;;;;4991127;28;20054;-67
2022/07/30 12:19:06;;;;;;;29.48;6.85;;;;;;;;;;4971772;28;20103;-64
2022/07/30 12:21:38;;;;;;;70.18;23.27;;;;;;;;;;4920168;28;20051;-65
2022/07/30 12:24:11;;;;;;;32.08;10.02;;;;;;;;;;4952449;28;20099;-65
2022/07/30 12:26:41;;;;;;;91.63;26.70;;;;;;;;;;4952397;28;20415;-65
2022/07/30 12:29:12;;;;;;;80.22;25.42;;;;;;;;;;4952499;28;20063;-65
2022/07/30 12:31:44;;;;;;;38.40;10.60;;;;;;;;;;4933292;29;20509;-65
2022/07/30 12:34:25;;;;;;;31.40;7.97;;;;;;;;;;4964872;28;20047;-65
2022/07/30 12:37:09;;;;;;;112.28;56.50;;;;;;;;;;4971492;28;20086;-65
2022/07/30 12:39:39;;;;;;;231.85;143.45;;;;;;;;;;4971249;28;20054;-65
2022/07/30 12:42:18;;;;;;;42.78;14.68;;;;;;;;;;4988192;28;20054;-64
2022/07/30 12:44:49;;;;;;;26.08;8.77;;;;;;;;;;4958176;28;20054;-66
2022/07/30 12:47:24;;;;;;;37.33;11.02;;;;;;;;;;4991074;28;20058;-65
2022/07/30 12:49:59;;;;;;;39.95;14.77;;;;;;;;;;4942622;28;20062;-67
2022/07/30 12:52:32;;;;;;;50.75;16.30;;;;;;;;;;4990832;28;20063;-65
2022/07/30 12:55:11;;;;;;;29.27;8.98;;;;;;;;;;4955170;28;20063;-66
2022/07/30 12:58:00;;;;;;;81.70;32.55;;;;;;;;;;4954413;28;20054;-66
2022/07/30 13:00:53;;;;;;;196.13;84.85;;;;;;;;;;4990498;28;20069;-66
2022/07/30 13:03:37;;;;;;;370.90;147.73;;;;;;;;;;4970510;28;20054;-66
2022/07/30 13:06:19;;;;;;;37.67;11.88;;;;;;;;;;4971079;28;20075;-65
2022/07/30 13:08:52;;;;;;;124.78;59.08;;;;;;;;;;4951246;29;20051;-66
2022/07/30 13:11:25;;;;;;;50.17;17.38;;;;;;;;;;4946290;29;20092;-68
2022/07/30 13:13:55;;;;;;;39.08;15.93;;;;;;;;;;4932671;29;20056;-65
2022/07/30 13:16:31;;;;;;;22.75;8.85;;;;;;;;;;4940393;28;20493;-66
2022/07/30 13:19:05;;;;;;;26.48;8.70;;;;;;;;;;4974566;28;20066;-65
2022/07/30 13:21:37;;;;;;;32.67;11.68;;;;;;;;;;4974233;28;20069;-65
2022/07/30 13:24:17;;;;;;;23.40;8.48;;;;;;;;;;4957625;28;20050;-66
2022/07/30 13:26:48;;;;;;;21.48;7.03;;;;;;;;;;4990112;28;20530;-67
2022/07/30 13:29:28;;;;;;;20.02;7.53;;;;;;;;;;4990320;28;20058;-65
2022/07/30 13:31:59;;;;;;;27.10;11.98;;;;;;;;;;4989739;28;20414;-66
2022/07/30 13:34:29;;;;;;;22.40;9.63;;;;;;;;;;4989773;28;20061;-65
2022/07/30 13:36:59;;;;;;;39.40;18.92;;;;;;;;;;4989802;28;20061;-67
2022/07/30 13:39:30;;;;;;;18.70;7.10;;;;;;;;;;4938460;28;20054;-66
2022/07/30 13:42:01;;;;;;;29.48;12.95;;;;;;;;;;4971777;28;20134;-65
2022/07/30 13:44:31;;;;;;;20.10;7.53;;;;;;;;;;4989916;28;20058;-65
2022/07/30 13:47:01;;;;;;;73.28;57.45;;;;;;;;;;4989831;28;20430;-66
2022/07/30 13:49:35;;;;;;;21.20;7.65;;;;;;;;;;4970209;28;20066;-65
2022/07/30 13:52:05;;;;;;;21.17;8.88;;;;;;;;;;4970352;28;20529;-65
2022/07/30 13:54:35;;;;;;;19.83;7.90;;;;;;;;;;4970397;28;20062;-65
2022/07/30 13:57:05;;;;;;;17.50;6.82;;;;;;;;;;4969526;28;20047;-65
2022/07/30 13:59:36;;;;;;;21.42;8.90;;;;;;;;;;4970175;28;20458;-66
2022/07/30 14:02:06;;;;;;;18.35;7.03;;;;;;;;;;4961542;28;20047;-64
2022/07/30 14:04:36;;;;;;;32.03;13.30;;;;;;;;;;4953873;28;20070;-65
2022/07/30 14:07:06;;;;;;;23.15;10.02;;;;;;;;;;4970146;28;20055;-64
2022/07/30 14:09:38;;;;;;;25.50;10.93;;;;;;;;;;4979825;28;20069;-64
2022/07/30 14:12:15;;;;;;;27.27;11.63;;;;;;;;;;4941638;28;20066;-66
2022/07/30 14:14:45;;;;;;;30.13;12.52;;;;;;;;;;5008780;28;20406;-64
2022/07/30 14:17:16;;;;;;;46.50;25.17;;;;;;;;;;5008881;28;20049;-65
2022/07/30 14:19:49;;;;;;;30.45;12.15;;;;;;;;;;4934373;29;20043;-64
2022/07/30 14:22:19;;;;;;;31.73;14.65;;;;;;;;;;4950457;29;20055;-64
2022/07/30 14:24:50;;;;;;;21.48;9.45;;;;;;;;;;4931111;29;20056;-64
2022/07/30 14:27:22;;;;;;;65.90;36.83;;;;;;;;;;4936719;28;20122;-64
2022/07/30 14:29:53;;;;;;;20.50;8.57;;;;;;;;;;4954152;28;20414;-63
2022/07/30 14:32:23;;;;;;;55.22;32.30;;;;;;;;;;4937550;28;20515;-63
2022/07/30 14:34:58;;;;;;;25.98;12.80;;;;;;;;;;4958353;28;20047;-64
2022/07/30 14:37:30;;;;;;;15.65;7.20;;;;;;;;;;4950648;29;20092;-63
2022/07/30 14:40:01;;;;;;;34.50;21.83;;;;;;;;;;4973290;28;20062;-65
2022/07/30 14:42:31;;;;;;;15.45;7.72;;;;;;;;;;4975896;28;20049;-63
2022/07/30 14:45:06;;;;;;;11.85;6.28;;;;;;;;;;4956551;28;20082;-63
2022/07/30 14:47:38;;;;;;;9.77;4.38;;;;;;;;;;4969176;28;20046;-63
2022/07/30 14:50:09;;;;;;;4.28;1.58;;;;;;;;;;4969387;28;20051;-64
2022/07/30 14:52:39;;;;;;;4.93;2.92;;;;;;;;;;4935312;28;20052;-63
2022/07/30 14:55:10;;;;;;;8.00;4.32;;;;;;;;;;4912451;29;20048;-62
2022/07/30 14:57:42;;;;;;;5.93;2.63;;;;;;;;;;4923133;29;20060;-64
2022/07/30 15:00:13;;;;;;;;;;;;;;;;;;4915989;29;20058;-66
2022/07/30 15:02:42;;;;;;;4.95;2.38;;;;;;;;;;4942342;29;19922;-64
2022/07/30 15:05:13;;;;;;;4.53;2.17;;;;;;;;;;4949842;28;20047;-63
2022/07/30 15:07:43;;;;;;;2.42;1.33;;;;;;;;;;4931204;29;20051;-63
2022/07/30 15:10:14;;;;;;;4.82;1.90;;;;;;;;;;4912042;29;20049;-63
2022/07/30 15:12:44;;;;;;;3.40;1.40;;;;;;;;;;4896694;29;20131;-64
2022/07/30 15:15:15;;;;;;;6.20;3.67;;;;;;;;;;4914933;29;20163;-64
2022/07/30 15:17:48;;;;;;;6.30;2.47;;;;;;;;;;4915374;29;20056;-63
2022/07/30 15:20:18;;;;;;;7.88;4.07;;;;;;;;;;4895289;29;20057;-62
2022/07/30 15:22:49;;;;;;;6.22;1.67;;;;;;;;;;4877619;29;21298;-63
2022/07/30 15:25:20;;;;;;;4.22;2.10;;;;;;;;;;4877790;29;20057;-63
2022/07/30 15:27:51;;;;;;;9.90;3.72;;;;;;;;;;4877826;29;20057;-63
2022/07/30 15:30:23;;;;;;;4.45;2.30;;;;;;;;;;4886613;29;20536;-62
2022/07/30 15:32:55;;;;;;;4.30;2.55;;;;;;;;;;4877447;29;20064;-63
2022/07/30 15:35:25;;;;;;;3.53;1.85;;;;;;;;;;4893171;29;20049;-63
2022/07/30 15:37:55;;;;;;;21.95;12.43;;;;;;;;;;4911940;29;20083;-63
2022/07/30 15:40:26;;;;;;;52.60;41.63;;;;;;;;;;4896354;29;20068;-63